sensor_id;sensor_type;location;lat;lon;timestamp;pressure;altitude;pressure_sealevel;temperature;humidity
6423;BME280;3244;42.708;23.288;2023-05-07T00:01:15;95276.91;;;12.54;76.92
6423;BME280;3244;42.708;23.288;2023-05-07T00:03:43;95275.59;;;12.44;76.51
6423;BME280;3244;42.708;23.288;2023-05-07T00:06:10;95278.50;;;12.35;76.52
6423;BME280;3244;42.708;23.288;2023-05-07T00:08:38;95275.06;;;12.36;76.81
6423;BME280;3244;42.708;23.288;2023-05-07T00:11:04;95273.25;;;12.38;76.38
6423;BME280;3244;42.708;23.288;2023-05-07T00:13:31;95264.63;;;12.42;75.89
6423;BME280;3244;42.708;23.288;2023-05-07T00:16:00;95266.06;;;12.49;75.77
6423;BME280;3244;42.708;23.288;2023-05-07T00:18:27;95260.19;;;12.47;76.12
6423;BME280;3244;42.708;23.288;2023-05-07T00:20:55;95262.13;;;12.40;76.50
6423;BME280;3244;42.708;23.288;2023-05-07T00:23:22;95254.44;;;12.18;77.35
6423;BME280;3244;42.708;23.288;2023-05-07T00:25:49;95257.72;;;12.22;77.03
6423;BME280;3244;42.708;23.288;2023-05-07T00:28:16;95258.94;;;12.35;76.94
6423;BME280;3244;42.708;23.288;2023-05-07T00:30:42;95268.34;;;12.33;76.78
6423;BME280;3244;42.708;23.288;2023-05-07T00:33:09;95264.16;;;12.32;76.66
6423;BME280;3244;42.708;23.288;2023-05-07T00:35:36;95263.22;;;12.35;76.76
6423;BME280;3244;42.708;23.288;2023-05-07T00:38:04;95265.75;;;12.35;77.20
6423;BME280;3244;42.708;23.288;2023-05-07T00:40:30;95265.81;;;12.33;77.02
6423;BME280;3244;42.708;23.288;2023-05-07T00:42:57;95266.66;;;12.34;77.13
6423;BME280;3244;42.708;23.288;2023-05-07T00:45:26;95259.78;;;12.12;77.56
6423;BME280;3244;42.708;23.288;2023-05-07T00:47:54;95271.41;;;12.19;77.70
6423;BME280;3244;42.708;23.288;2023-05-07T00:50:21;95274.06;;;12.16;77.70
6423;BME280;3244;42.708;23.288;2023-05-07T00:52:47;95267.03;;;12.00;78.31
6423;BME280;3244;42.708;23.288;2023-05-07T00:55:16;95278.25;;;11.94;78.84
6423;BME280;3244;42.708;23.288;2023-05-07T00:57:43;95266.66;;;11.87;78.49
6423;BME280;3244;42.708;23.288;2023-05-07T01:00:11;95271.41;;;11.96;78.23
6423;BME280;3244;42.708;23.288;2023-05-07T01:02:38;95266.41;;;11.93;78.48
6423;BME280;3244;42.708;23.288;2023-05-07T01:05:07;95278.25;;;11.94;77.94
6423;BME280;3244;42.708;23.288;2023-05-07T01:07:35;95271.44;;;11.95;78.13
6423;BME280;3244;42.708;23.288;2023-05-07T01:10:04;95254.91;;;11.83;77.72
6423;BME280;3244;42.708;23.288;2023-05-07T01:12:32;95278.66;;;11.83;78.44
6423;BME280;3244;42.708;23.288;2023-05-07T01:15:00;95273.72;;;11.79;78.60
6423;BME280;3244;42.708;23.288;2023-05-07T01:17:26;95274.59;;;11.78;78.74
6423;BME280;3244;42.708;23.288;2023-05-07T01:19:53;95277.97;;;11.78;78.55
6423;BME280;3244;42.708;23.288;2023-05-07T01:22:29;95265.28;;;11.77;78.48
6423;BME280;3244;42.708;23.288;2023-05-07T01:24:57;95274.00;;;11.70;78.08
6423;BME280;3244;42.708;23.288;2023-05-07T01:27:24;95267.47;;;11.63;78.96
6423;BME280;3244;42.708;23.288;2023-05-07T01:29:52;95274.31;;;11.61;79.15
6423;BME280;3244;42.708;23.288;2023-05-07T01:32:22;95274.19;;;11.64;78.97
6423;BME280;3244;42.708;23.288;2023-05-07T01:34:51;95281.06;;;11.62;78.82
6423;BME280;3244;42.708;23.288;2023-05-07T01:37:19;95269.09;;;11.64;79.13
6423;BME280;3244;42.708;23.288;2023-05-07T01:39:48;95276.19;;;11.55;79.13
6423;BME280;3244;42.708;23.288;2023-05-07T01:42:15;95261.81;;;11.54;79.36
6423;BME280;3244;42.708;23.288;2023-05-07T01:44:42;95257.44;;;11.58;78.91
6423;BME280;3244;42.708;23.288;2023-05-07T01:47:08;95252.59;;;11.50;79.29
6423;BME280;3244;42.708;23.288;2023-05-07T01:49:36;95257.75;;;11.49;79.46
6423;BME280;3244;42.708;23.288;2023-05-07T01:52:03;95228.53;;;11.36;79.77
6423;BME280;3244;42.708;23.288;2023-05-07T01:54:30;95255.94;;;11.52;79.25
6423;BME280;3244;42.708;23.288;2023-05-07T01:56:58;95250.84;;;11.52;79.44
6423;BME280;3244;42.708;23.288;2023-05-07T01:59:25;95245.66;;;11.55;79.04
6423;BME280;3244;42.708;23.288;2023-05-07T02:01:52;95249.28;;;11.48;79.49
6423;BME280;3244;42.708;23.288;2023-05-07T02:04:18;95244.09;;;11.51;78.89
6423;BME280;3244;42.708;23.288;2023-05-07T02:06:45;95243.84;;;11.34;79.79
6423;BME280;3244;42.708;23.288;2023-05-07T02:09:11;95242.94;;;11.35;79.67
6423;BME280;3244;42.708;23.288;2023-05-07T02:11:40;95237.13;;;11.32;79.76
6423;BME280;3244;42.708;23.288;2023-05-07T02:14:08;95236.19;;;11.34;80.12
6423;BME280;3244;42.708;23.288;2023-05-07T02:16:35;95234.59;;;11.32;80.05
6423;BME280;3244;42.708;23.288;2023-05-07T02:19:02;95232.09;;;11.30;79.99
6423;BME280;3244;42.708;23.288;2023-05-07T02:21:28;95232.00;;;11.33;79.90
6423;BME280;3244;42.708;23.288;2023-05-07T02:23:55;95226.22;;;11.28;79.94
6423;BME280;3244;42.708;23.288;2023-05-07T02:26:22;95234.88;;;11.22;80.35
6423;BME280;3244;42.708;23.288;2023-05-07T02:28:48;95234.84;;;11.24;80.12
6423;BME280;3244;42.708;23.288;2023-05-07T02:31:17;95236.50;;;11.25;80.31
6423;BME280;3244;42.708;23.288;2023-05-07T02:33:44;95234.06;;;11.22;80.42
6423;BME280;3244;42.708;23.288;2023-05-07T02:36:11;95235.03;;;11.18;80.28
6423;BME280;3244;42.708;23.288;2023-05-07T02:38:38;95227.63;;;11.12;80.51
6423;BME280;3244;42.708;23.288;2023-05-07T02:41:05;95240.94;;;11.18;80.17
6423;BME280;3244;42.708;23.288;2023-05-07T02:43:32;95249.16;;;11.27;79.92
6423;BME280;3244;42.708;23.288;2023-05-07T02:46:03;95240.75;;;11.24;79.86
6423;BME280;3244;42.708;23.288;2023-05-07T02:48:31;95236.41;;;11.28;79.49
6423;BME280;3244;42.708;23.288;2023-05-07T02:50:58;95237.44;;;11.22;79.79
6423;BME280;3244;42.708;23.288;2023-05-07T02:53:25;95233.31;;;11.18;80.08
6423;BME280;3244;42.708;23.288;2023-05-07T02:55:52;95239.38;;;11.14;79.87
6423;BME280;3244;42.708;23.288;2023-05-07T02:58:19;95242.84;;;11.13;79.85
6423;BME280;3244;42.708;23.288;2023-05-07T03:00:46;95249.03;;;11.05;80.17
6423;BME280;3244;42.708;23.288;2023-05-07T03:03:13;95254.22;;;11.02;80.58
6423;BME280;3244;42.708;23.288;2023-05-07T03:05:41;95255.97;;;11.00;80.37
6423;BME280;3244;42.708;23.288;2023-05-07T03:08:08;95257.28;;;11.13;79.74
6423;BME280;3244;42.708;23.288;2023-05-07T03:10:35;95254.72;;;11.13;79.38
6423;BME280;3244;42.708;23.288;2023-05-07T03:13:02;95256.56;;;11.08;79.62
6423;BME280;3244;42.708;23.288;2023-05-07T03:15:28;95260.88;;;11.06;79.85
6423;BME280;3244;42.708;23.288;2023-05-07T03:17:55;95262.22;;;11.16;79.54
6423;BME280;3244;42.708;23.288;2023-05-07T03:20:22;95258.16;;;11.12;79.40
6423;BME280;3244;42.708;23.288;2023-05-07T03:22:50;95264.81;;;11.14;79.30
6423;BME280;3244;42.708;23.288;2023-05-07T03:25:17;95253.06;;;11.12;79.30
6423;BME280;3244;42.708;23.288;2023-05-07T03:27:43;95266.75;;;11.08;79.69
6423;BME280;3244;42.708;23.288;2023-05-07T03:30:11;95271.84;;;11.08;79.83
6423;BME280;3244;42.708;23.288;2023-05-07T03:32:38;95256.22;;;11.18;79.48
6423;BME280;3244;42.708;23.288;2023-05-07T03:35:06;95263.13;;;11.40;78.88
6423;BME280;3244;42.708;23.288;2023-05-07T03:37:33;95263.25;;;11.62;78.28
6423;BME280;3244;42.708;23.288;2023-05-07T03:40:01;95268.78;;;11.73;77.58
6423;BME280;3244;42.708;23.288;2023-05-07T03:42:28;95278.28;;;11.68;77.68
6423;BME280;3244;42.708;23.288;2023-05-07T03:44:55;95280.59;;;12.00;75.77
6423;BME280;3244;42.708;23.288;2023-05-07T03:47:22;95279.25;;;12.13;75.12
6423;BME280;3244;42.708;23.288;2023-05-07T03:49:48;95268.84;;;12.19;74.60
6423;BME280;3244;42.708;23.288;2023-05-07T03:52:15;95284.47;;;12.34;73.21
6423;BME280;3244;42.708;23.288;2023-05-07T03:54:48;95286.38;;;12.29;73.40
6423;BME280;3244;42.708;23.288;2023-05-07T03:57:16;95282.16;;;12.27;73.76
6423;BME280;3244;42.708;23.288;2023-05-07T03:59:42;95277.16;;;12.24;73.20
6423;BME280;3244;42.708;23.288;2023-05-07T04:02:09;95283.22;;;12.44;73.32
6423;BME280;3244;42.708;23.288;2023-05-07T04:04:36;95300.09;;;12.91;72.82
6423;BME280;3244;42.708;23.288;2023-05-07T04:07:02;95295.78;;;13.78;69.22
6423;BME280;3244;42.708;23.288;2023-05-07T04:09:29;95296.50;;;14.39;67.30
6423;BME280;3244;42.708;23.288;2023-05-07T04:11:56;95295.63;;;15.14;65.21
6423;BME280;3244;42.708;23.288;2023-05-07T04:14:24;95305.72;;;15.70;63.65
6423;BME280;3244;42.708;23.288;2023-05-07T04:16:51;95305.72;;;16.20;61.51
6423;BME280;3244;42.708;23.288;2023-05-07T04:19:17;95312.00;;;16.63;59.80
6423;BME280;3244;42.708;23.288;2023-05-07T04:21:44;95313.50;;;16.67;59.16
6423;BME280;3244;42.708;23.288;2023-05-07T04:24:11;95319.78;;;17.25;57.69
6423;BME280;3244;42.708;23.288;2023-05-07T04:26:37;95314.91;;;17.66;56.37
6423;BME280;3244;42.708;23.288;2023-05-07T04:29:05;95312.66;;;17.90;55.63
6423;BME280;3244;42.708;23.288;2023-05-07T04:31:33;95320.03;;;18.10;54.63
6423;BME280;3244;42.708;23.288;2023-05-07T04:34:00;95317.84;;;18.47;53.67
6423;BME280;3244;42.708;23.288;2023-05-07T04:36:26;95314.31;;;18.90;52.17
6423;BME280;3244;42.708;23.288;2023-05-07T04:38:54;95320.59;;;19.54;51.07
6423;BME280;3244;42.708;23.288;2023-05-07T04:41:21;95317.38;;;20.28;49.10
6423;BME280;3244;42.708;23.288;2023-05-07T04:43:48;95316.84;;;21.23;46.96
6423;BME280;3244;42.708;23.288;2023-05-07T04:46:14;95313.66;;;22.36;43.66
6423;BME280;3244;42.708;23.288;2023-05-07T04:48:42;95316.97;;;23.48;41.16
6423;BME280;3244;42.708;23.288;2023-05-07T04:51:09;95316.25;;;23.57;40.59
6423;BME280;3244;42.708;23.288;2023-05-07T04:53:37;95313.13;;;23.31;40.83
6423;BME280;3244;42.708;23.288;2023-05-07T04:56:04;95314.84;;;22.65;42.08
6423;BME280;3244;42.708;23.288;2023-05-07T04:58:30;95316.03;;;21.93;43.75
6423;BME280;3244;42.708;23.288;2023-05-07T05:00:57;95312.75;;;21.32;45.05
6423;BME280;3244;42.708;23.288;2023-05-07T05:03:24;95313.09;;;21.15;45.74
6423;BME280;3244;42.708;23.288;2023-05-07T05:05:52;95319.97;;;21.03;46.29
6423;BME280;3244;42.708;23.288;2023-05-07T05:08:19;95318.97;;;20.80;46.82
6423;BME280;3244;42.708;23.288;2023-05-07T05:10:46;95319.22;;;20.64;47.28
6423;BME280;3244;42.708;23.288;2023-05-07T05:13:14;95325.16;;;20.90;47.17
6423;BME280;3244;42.708;23.288;2023-05-07T05:15:40;95318.41;;;21.61;45.42
6423;BME280;3244;42.708;23.288;2023-05-07T05:18:07;95307.88;;;21.75;44.83
6423;BME280;3244;42.708;23.288;2023-05-07T05:20:34;95312.50;;;21.11;46.61
6423;BME280;3244;42.708;23.288;2023-05-07T05:23:02;95312.00;;;20.69;47.84
6423;BME280;3244;42.708;23.288;2023-05-07T05:25:28;95312.50;;;20.62;48.50
6423;BME280;3244;42.708;23.288;2023-05-07T05:27:55;95314.59;;;20.57;48.55
6423;BME280;3244;42.708;23.288;2023-05-07T05:30:22;95317.69;;;20.62;48.66
6423;BME280;3244;42.708;23.288;2023-05-07T05:32:49;95322.22;;;20.71;48.64
6423;BME280;3244;42.708;23.288;2023-05-07T05:35:16;95314.44;;;20.84;48.58
6423;BME280;3244;42.708;23.288;2023-05-07T05:37:42;95313.09;;;21.15;47.84
6423;BME280;3244;42.708;23.288;2023-05-07T05:40:11;95316.41;;;21.64;46.60
6423;BME280;3244;42.708;23.288;2023-05-07T05:42:38;95310.06;;;22.03;45.96
6423;BME280;3244;42.708;23.288;2023-05-07T05:45:06;95313.56;;;22.60;44.91
6423;BME280;3244;42.708;23.288;2023-05-07T05:47:33;95322.47;;;23.66;43.14
6423;BME280;3244;42.708;23.288;2023-05-07T05:49:59;95313.00;;;24.69;41.01
6423;BME280;3244;42.708;23.288;2023-05-07T05:52:26;95305.53;;;26.31;37.28
6423;BME280;3244;42.708;23.288;2023-05-07T05:54:53;95300.16;;;28.57;33.19
6423;BME280;3244;42.708;23.288;2023-05-07T05:57:21;95297.22;;;30.74;29.65
6423;BME280;3244;42.708;23.288;2023-05-07T05:59:48;95302.69;;;33.59;26.47
6423;BME280;3244;42.708;23.288;2023-05-07T06:02:15;95283.63;;;35.98;22.90
6423;BME280;3244;42.708;23.288;2023-05-07T06:04:41;95298.13;;;38.27;21.46
6423;BME280;3244;42.708;23.288;2023-05-07T06:07:08;95297.38;;;40.03;19.68
6423;BME280;3244;42.708;23.288;2023-05-07T06:09:35;95290.72;;;41.34;18.47
6423;BME280;3244;42.708;23.288;2023-05-07T06:12:02;95290.19;;;42.39;17.28
6423;BME280;3244;42.708;23.288;2023-05-07T06:14:30;95283.78;;;42.73;16.66
6423;BME280;3244;42.708;23.288;2023-05-07T06:16:56;95292.91;;;42.56;16.75
6423;BME280;3244;42.708;23.288;2023-05-07T06:19:23;95287.03;;;42.75;16.87
6423;BME280;3244;42.708;23.288;2023-05-07T06:21:52;95286.69;;;43.27;16.07
6423;BME280;3244;42.708;23.288;2023-05-07T06:24:18;95282.78;;;43.40;16.12
6423;BME280;3244;42.708;23.288;2023-05-07T06:26:45;95281.44;;;44.18;15.23
6423;BME280;3244;42.708;23.288;2023-05-07T06:29:12;95291.88;;;44.47;14.97
6423;BME280;3244;42.708;23.288;2023-05-07T06:31:40;95276.16;;;45.13;14.73
6423;BME280;3244;42.708;23.288;2023-05-07T06:34:07;95269.69;;;44.61;14.43
6423;BME280;3244;42.708;23.288;2023-05-07T06:36:33;95274.56;;;43.68;14.97
6423;BME280;3244;42.708;23.288;2023-05-07T06:39:00;95265.59;;;43.85;15.06
6423;BME280;3244;42.708;23.288;2023-05-07T06:41:27;95261.31;;;44.90;14.21
6423;BME280;3244;42.708;23.288;2023-05-07T06:43:54;95258.13;;;44.56;14.25
6423;BME280;3244;42.708;23.288;2023-05-07T06:46:20;95258.91;;;44.14;15.01
6423;BME280;3244;42.708;23.288;2023-05-07T06:48:48;95260.84;;;44.61;14.40
6423;BME280;3244;42.708;23.288;2023-05-07T06:51:15;95249.41;;;45.38;13.89
6423;BME280;3244;42.708;23.288;2023-05-07T06:53:42;95252.50;;;46.18;13.74
6423;BME280;3244;42.708;23.288;2023-05-07T06:56:08;95243.94;;;47.26;13.08
6423;BME280;3244;42.708;23.288;2023-05-07T06:58:36;95241.47;;;47.79;12.83
6423;BME280;3244;42.708;23.288;2023-05-07T07:01:02;95241.75;;;48.45;12.49
6423;BME280;3244;42.708;23.288;2023-05-07T07:03:30;95251.78;;;48.39;12.27
6423;BME280;3244;42.708;23.288;2023-05-07T07:05:58;95251.09;;;47.90;12.49
6423;BME280;3244;42.708;23.288;2023-05-07T07:08:24;95247.00;;;47.58;12.71
6423;BME280;3244;42.708;23.288;2023-05-07T07:10:51;95247.81;;;47.54;12.91
6423;BME280;3244;42.708;23.288;2023-05-07T07:13:18;95241.06;;;47.56;12.83
6423;BME280;3244;42.708;23.288;2023-05-07T07:15:44;95236.25;;;47.53;12.72
6423;BME280;3244;42.708;23.288;2023-05-07T07:18:11;95238.72;;;47.89;12.47
6423;BME280;3244;42.708;23.288;2023-05-07T07:20:38;95242.16;;;48.28;12.23
6423;BME280;3244;42.708;23.288;2023-05-07T07:23:06;95232.06;;;48.15;12.42
6423;BME280;3244;42.708;23.288;2023-05-07T07:25:33;95239.84;;;48.51;12.29
6423;BME280;3244;42.708;23.288;2023-05-07T07:27:59;95232.94;;;48.34;12.23
6423;BME280;3244;42.708;23.288;2023-05-07T07:30:26;95234.47;;;48.46;12.10
6423;BME280;3244;42.708;23.288;2023-05-07T07:32:53;95235.75;;;48.53;12.46
6423;BME280;3244;42.708;23.288;2023-05-07T07:35:20;95233.41;;;47.79;12.32
6423;BME280;3244;42.708;23.288;2023-05-07T07:37:47;95241.34;;;47.99;12.65
6423;BME280;3244;42.708;23.288;2023-05-07T07:40:16;95249.22;;;48.77;12.09
6423;BME280;3244;42.708;23.288;2023-05-07T07:42:43;95241.28;;;48.38;12.15
6423;BME280;3244;42.708;23.288;2023-05-07T07:45:10;95243.63;;;47.27;12.62
6423;BME280;3244;42.708;23.288;2023-05-07T07:47:37;95237.38;;;47.47;12.67
6423;BME280;3244;42.708;23.288;2023-05-07T07:50:04;95249.31;;;47.75;12.47
6423;BME280;3244;42.708;23.288;2023-05-07T07:52:31;95251.66;;;46.73;12.59
6423;BME280;3244;42.708;23.288;2023-05-07T07:54:58;95242.00;;;45.91;13.53
6423;BME280;3244;42.708;23.288;2023-05-07T07:57:26;95247.94;;;45.78;13.29
6423;BME280;3244;42.708;23.288;2023-05-07T07:59:52;95245.97;;;46.85;12.63
6423;BME280;3244;42.708;23.288;2023-05-07T08:02:19;95237.66;;;46.76;12.12
6423;BME280;3244;42.708;23.288;2023-05-07T08:04:45;95232.31;;;46.56;13.28
6423;BME280;3244;42.708;23.288;2023-05-07T08:07:12;95235.97;;;46.95;12.48
6423;BME280;3244;42.708;23.288;2023-05-07T08:09:40;95238.28;;;47.71;12.79
6423;BME280;3244;42.708;23.288;2023-05-07T08:12:07;95227.81;;;47.21;12.38
6423;BME280;3244;42.708;23.288;2023-05-07T08:14:35;95235.38;;;47.14;12.43
6423;BME280;3244;42.708;23.288;2023-05-07T08:17:02;95231.03;;;47.23;12.67
6423;BME280;3244;42.708;23.288;2023-05-07T08:19:29;95229.00;;;47.93;12.64
6423;BME280;3244;42.708;23.288;2023-05-07T08:21:56;95233.16;;;48.09;11.89
6423;BME280;3244;42.708;23.288;2023-05-07T08:24:22;95223.69;;;47.83;11.93
6423;BME280;3244;42.708;23.288;2023-05-07T08:26:49;95222.56;;;47.89;12.19
6423;BME280;3244;42.708;23.288;2023-05-07T08:29:16;95220.88;;;48.56;12.01
6423;BME280;3244;42.708;23.288;2023-05-07T08:31:43;95228.16;;;48.26;11.66
6423;BME280;3244;42.708;23.288;2023-05-07T08:34:10;95225.16;;;49.28;11.28
6423;BME280;3244;42.708;23.288;2023-05-07T08:36:37;95217.59;;;49.06;11.22
6423;BME280;3244;42.708;23.288;2023-05-07T08:39:04;95229.22;;;48.30;11.32
6423;BME280;3244;42.708;23.288;2023-05-07T08:41:31;95212.06;;;47.48;11.87
6423;BME280;3244;42.708;23.288;2023-05-07T08:43:58;95216.75;;;46.27;12.07
6423;BME280;3244;42.708;23.288;2023-05-07T08:46:25;95214.03;;;46.68;12.06
6423;BME280;3244;42.708;23.288;2023-05-07T08:48:58;95211.66;;;47.26;12.11
6423;BME280;3244;42.708;23.288;2023-05-07T08:51:25;95213.72;;;48.17;11.65
6423;BME280;3244;42.708;23.288;2023-05-07T08:53:52;95199.53;;;48.59;11.28
6423;BME280;3244;42.708;23.288;2023-05-07T08:56:19;95193.00;;;48.89;11.19
6423;BME280;3244;42.708;23.288;2023-05-07T08:58:47;95201.38;;;47.28;11.85
6423;BME280;3244;42.708;23.288;2023-05-07T09:01:14;95199.81;;;46.37;12.69
6423;BME280;3244;42.708;23.288;2023-05-07T09:03:44;95200.09;;;46.05;12.38
6423;BME280;3244;42.708;23.288;2023-05-07T09:06:12;95198.16;;;43.34;13.91
6423;BME280;3244;42.708;23.288;2023-05-07T09:08:39;95191.69;;;42.04;14.64
6423;BME280;3244;42.708;23.288;2023-05-07T09:11:05;95192.94;;;41.11;16.10
6423;BME280;3244;42.708;23.288;2023-05-07T09:13:32;95184.06;;;38.94;16.84
6423;BME280;3244;42.708;23.288;2023-05-07T09:16:01;95179.56;;;37.02;18.75
6423;BME280;3244;42.708;23.288;2023-05-07T09:18:40;95185.75;;;34.91;20.16
6423;BME280;3244;42.708;23.288;2023-05-07T09:21:09;95180.34;;;33.96;20.79
6423;BME280;3244;42.708;23.288;2023-05-07T09:23:38;95184.94;;;33.38;21.77
6423;BME280;3244;42.708;23.288;2023-05-07T09:26:04;95180.41;;;33.32;21.93
6423;BME280;3244;42.708;23.288;2023-05-07T09:28:35;95176.47;;;33.70;22.24
6423;BME280;3244;42.708;23.288;2023-05-07T09:31:04;95173.63;;;33.93;22.07
6423;BME280;3244;42.708;23.288;2023-05-07T09:33:31;95174.63;;;33.86;21.66
6423;BME280;3244;42.708;23.288;2023-05-07T09:35:57;95167.25;;;33.32;22.71
6423;BME280;3244;42.708;23.288;2023-05-07T09:38:25;95176.84;;;32.82;23.07
6423;BME280;3244;42.708;23.288;2023-05-07T09:41:03;95171.19;;;31.97;23.83
6423;BME280;3244;42.708;23.288;2023-05-07T09:43:32;95168.63;;;31.14;24.84
6423;BME280;3244;42.708;23.288;2023-05-07T09:46:02;95167.34;;;30.23;25.46
6423;BME280;3244;42.708;23.288;2023-05-07T09:48:30;95165.66;;;29.34;26.39
6423;BME280;3244;42.708;23.288;2023-05-07T09:50:57;95165.13;;;28.90;27.17
6423;BME280;3244;42.708;23.288;2023-05-07T09:53:29;95166.28;;;28.46;27.43
6423;BME280;3244;42.708;23.288;2023-05-07T09:55:57;95162.84;;;28.11;28.22
6423;BME280;3244;42.708;23.288;2023-05-07T09:58:27;95165.97;;;28.15;29.25
6423;BME280;3244;42.708;23.288;2023-05-07T10:00:55;95159.91;;;28.14;28.89
6423;BME280;3244;42.708;23.288;2023-05-07T10:03:24;95154.44;;;27.99;28.91
6423;BME280;3244;42.708;23.288;2023-05-07T10:05:54;95152.38;;;28.11;28.72
6423;BME280;3244;42.708;23.288;2023-05-07T10:08:21;95160.59;;;27.90;28.64
6423;BME280;3244;42.708;23.288;2023-05-07T10:10:49;95157.53;;;27.95;28.69
6423;BME280;3244;42.708;23.288;2023-05-07T10:13:16;95157.19;;;27.98;28.15
6423;BME280;3244;42.708;23.288;2023-05-07T10:15:45;95149.50;;;27.88;27.79
6423;BME280;3244;42.708;23.288;2023-05-07T10:18:12;95155.63;;;27.79;27.44
6423;BME280;3244;42.708;23.288;2023-05-07T10:20:40;95151.34;;;27.52;28.16
6423;BME280;3244;42.708;23.288;2023-05-07T10:23:13;95152.19;;;27.35;28.22
6423;BME280;3244;42.708;23.288;2023-05-07T10:25:41;95144.25;;;27.19;28.05
6423;BME280;3244;42.708;23.288;2023-05-07T10:28:08;95135.91;;;26.97;28.28
6423;BME280;3244;42.708;23.288;2023-05-07T10:30:45;95136.06;;;26.96;28.67
6423;BME280;3244;42.708;23.288;2023-05-07T10:33:19;95132.63;;;26.95;28.17
6423;BME280;3244;42.708;23.288;2023-05-07T10:35:50;95127.22;;;26.79;27.95
6423;BME280;3244;42.708;23.288;2023-05-07T10:38:17;95125.53;;;26.70;28.14
6423;BME280;3244;42.708;23.288;2023-05-07T10:40:44;95121.28;;;26.69;28.54
6423;BME280;3244;42.708;23.288;2023-05-07T10:43:11;95122.81;;;26.62;28.49
6423;BME280;3244;42.708;23.288;2023-05-07T10:45:38;95119.00;;;26.74;28.41
6423;BME280;3244;42.708;23.288;2023-05-07T10:48:09;95116.56;;;26.90;28.91
6423;BME280;3244;42.708;23.288;2023-05-07T10:50:38;95116.75;;;27.06;28.59
6423;BME280;3244;42.708;23.288;2023-05-07T10:53:24;95119.50;;;27.05;28.11
6423;BME280;3244;42.708;23.288;2023-05-07T10:59:35;95114.47;;;26.76;28.30
6423;BME280;3244;42.708;23.288;2023-05-07T11:02:07;95119.44;;;26.52;29.31
6423;BME280;3244;42.708;23.288;2023-05-07T11:04:35;95116.75;;;26.16;29.40
6423;BME280;3244;42.708;23.288;2023-05-07T11:07:23;95116.72;;;25.89;29.14
6423;BME280;3244;42.708;23.288;2023-05-07T11:10:00;95112.16;;;25.63;28.93
6423;BME280;3244;42.708;23.288;2023-05-07T11:12:49;95114.81;;;25.25;30.49
6423;BME280;3244;42.708;23.288;2023-05-07T11:15:38;95112.19;;;25.34;30.45
6423;BME280;3244;42.708;23.288;2023-05-07T11:18:07;95108.44;;;25.56;29.65
6423;BME280;3244;42.708;23.288;2023-05-07T11:20:48;95104.47;;;25.62;29.84
6423;BME280;3244;42.708;23.288;2023-05-07T11:23:57;95104.09;;;25.47;29.93
6423;BME280;3244;42.708;23.288;2023-05-07T11:26:24;95093.38;;;25.50;30.18
6423;BME280;3244;42.708;23.288;2023-05-07T11:28:51;95098.84;;;25.57;30.39
6423;BME280;3244;42.708;23.288;2023-05-07T11:31:24;95095.72;;;25.72;29.73
6423;BME280;3244;42.708;23.288;2023-05-07T11:33:52;95095.94;;;25.79;28.69
6423;BME280;3244;42.708;23.288;2023-05-07T11:36:19;95092.13;;;25.73;28.29
6423;BME280;3244;42.708;23.288;2023-05-07T11:38:46;95093.03;;;25.82;29.75
6423;BME280;3244;42.708;23.288;2023-05-07T11:41:16;95088.91;;;25.89;29.80
6423;BME280;3244;42.708;23.288;2023-05-07T11:43:56;95081.25;;;25.88;28.68
6423;BME280;3244;42.708;23.288;2023-05-07T11:46:24;95081.72;;;25.73;28.66
6423;BME280;3244;42.708;23.288;2023-05-07T11:48:50;95086.63;;;25.76;29.14
6423;BME280;3244;42.708;23.288;2023-05-07T11:51:21;95083.56;;;25.91;29.03
6423;BME280;3244;42.708;23.288;2023-05-07T11:53:48;95079.19;;;25.91;28.38
6423;BME280;3244;42.708;23.288;2023-05-07T11:56:18;95085.06;;;25.93;28.37
6423;BME280;3244;42.708;23.288;2023-05-07T11:58:46;95080.59;;;26.03;26.84
6423;BME280;3244;42.708;23.288;2023-05-07T12:01:14;95079.22;;;26.09;27.03
6423;BME280;3244;42.708;23.288;2023-05-07T12:03:42;95077.88;;;26.05;27.71
6423;BME280;3244;42.708;23.288;2023-05-07T12:06:10;95076.16;;;25.96;27.47
6423;BME280;3244;42.708;23.288;2023-05-07T12:08:38;95072.38;;;25.81;27.86
6423;BME280;3244;42.708;23.288;2023-05-07T12:11:07;95073.91;;;25.73;28.07
6423;BME280;3244;42.708;23.288;2023-05-07T12:13:36;95070.63;;;25.71;27.65
6423;BME280;3244;42.708;23.288;2023-05-07T12:16:04;95067.88;;;25.73;27.69
6423;BME280;3244;42.708;23.288;2023-05-07T12:18:33;95066.00;;;25.65;28.03
6423;BME280;3244;42.708;23.288;2023-05-07T12:21:00;95064.06;;;25.67;28.82
6423;BME280;3244;42.708;23.288;2023-05-07T12:23:27;95061.03;;;25.62;28.27
6423;BME280;3244;42.708;23.288;2023-05-07T12:25:54;95054.13;;;25.43;29.10
6423;BME280;3244;42.708;23.288;2023-05-07T12:28:21;95056.34;;;25.29;29.05
6423;BME280;3244;42.708;23.288;2023-05-07T12:30:50;95046.06;;;25.37;28.55
6423;BME280;3244;42.708;23.288;2023-05-07T12:33:17;95041.75;;;25.55;27.94
6423;BME280;3244;42.708;23.288;2023-05-07T12:35:44;95044.63;;;25.52;29.00
6423;BME280;3244;42.708;23.288;2023-05-07T12:38:12;95037.94;;;25.50;28.46
6423;BME280;3244;42.708;23.288;2023-05-07T12:40:41;95033.03;;;25.47;28.53
6423;BME280;3244;42.708;23.288;2023-05-07T12:43:15;95037.94;;;25.50;29.01
6423;BME280;3244;42.708;23.288;2023-05-07T12:45:42;95027.84;;;25.37;29.13
6423;BME280;3244;42.708;23.288;2023-05-07T12:48:11;95025.91;;;25.49;29.00
6423;BME280;3244;42.708;23.288;2023-05-07T12:50:38;95026.41;;;25.52;28.86
6423;BME280;3244;42.708;23.288;2023-05-07T12:53:05;95029.69;;;25.64;28.97
6423;BME280;3244;42.708;23.288;2023-05-07T12:55:40;95016.13;;;25.70;28.80
6423;BME280;3244;42.708;23.288;2023-05-07T12:58:07;95012.69;;;25.69;28.70
6423;BME280;3244;42.708;23.288;2023-05-07T13:00:35;95012.31;;;25.64;29.03
6423;BME280;3244;42.708;23.288;2023-05-07T13:03:02;95006.94;;;25.66;29.11
6423;BME280;3244;42.708;23.288;2023-05-07T13:05:31;95011.88;;;25.59;28.65
6423;BME280;3244;42.708;23.288;2023-05-07T13:07:57;95003.97;;;25.51;28.95
6423;BME280;3244;42.708;23.288;2023-05-07T13:10:25;94998.06;;;25.49;29.49
6423;BME280;3244;42.708;23.288;2023-05-07T13:12:51;95005.31;;;25.55;29.63
6423;BME280;3244;42.708;23.288;2023-05-07T13:15:18;95003.69;;;25.64;29.12
6423;BME280;3244;42.708;23.288;2023-05-07T13:17:45;94998.47;;;25.64;29.20